createdAt,value
2017-12-10T00:00:46.298Z,4.10
2017-12-10T00:03:13.794Z,2.70
2017-12-10T00:05:41.279Z,5.70
2017-12-10T00:08:09.498Z,2.50
2017-12-10T00:10:36.983Z,3.37
2017-12-10T00:13:04.553Z,2.77
2017-12-10T00:15:32.106Z,2.80
2017-12-10T00:17:59.608Z,2.33
2017-12-10T00:20:27.077Z,2.60
2017-12-10T00:22:54.576Z,3.00
2017-12-10T00:25:22.030Z,3.03
2017-12-10T00:27:49.653Z,3.27
2017-12-10T00:30:17.151Z,2.63
2017-12-10T00:32:44.729Z,2.33
2017-12-10T00:35:12.203Z,3.13
2017-12-10T00:37:39.721Z,5.40
2017-12-10T00:40:07.199Z,3.30
2017-12-10T00:42:35.446Z,2.83
2017-12-10T00:45:02.902Z,3.10
2017-12-10T00:47:30.394Z,5.13
2017-12-10T00:49:58.614Z,2.60
2017-12-10T00:52:26.081Z,2.97
2017-12-10T00:54:53.651Z,2.90
2017-12-10T00:57:21.199Z,4.27
2017-12-10T00:59:48.659Z,2.80
2017-12-10T01:02:16.131Z,2.70
2017-12-10T01:04:43.587Z,3.13
2017-12-10T01:07:11.959Z,3.20
2017-12-10T01:09:39.415Z,2.73
2017-12-10T01:12:06.867Z,3.40
2017-12-10T01:14:34.355Z,2.67
2017-12-10T01:17:02.240Z,4.87
2017-12-10T01:19:29.741Z,3.00
2017-12-10T01:21:57.295Z,4.03
2017-12-10T01:24:24.856Z,3.30
2017-12-10T01:26:52.439Z,3.23
2017-12-10T01:29:20.655Z,4.50
2017-12-10T01:31:48.183Z,4.03
2017-12-10T01:34:15.631Z,3.63
2017-12-10T01:36:43.161Z,4.20
2017-12-10T01:39:12.122Z,3.30
2017-12-10T01:41:39.710Z,4.40
2017-12-10T01:44:07.268Z,3.43
2017-12-10T01:46:34.822Z,3.50
2017-12-10T01:49:02.379Z,3.07
2017-12-10T01:51:29.834Z,3.27
2017-12-10T01:53:57.392Z,2.90
2017-12-10T01:56:24.863Z,3.63
2017-12-10T01:58:53.087Z,3.30
2017-12-10T02:01:20.559Z,3.07
2017-12-10T02:03:48.037Z,3.30
2017-12-10T02:06:15.493Z,3.07
2017-12-10T02:08:44.591Z,4.30
2017-12-10T02:11:12.047Z,3.23
2017-12-10T02:13:39.502Z,3.03
2017-12-10T02:16:07.759Z,2.50
2017-12-10T02:18:35.322Z,2.90
2017-12-10T02:21:02.777Z,2.87
2017-12-10T02:23:30.335Z,2.63
2017-12-10T02:25:57.790Z,2.80
2017-12-10T02:28:25.258Z,4.00
2017-12-10T02:30:53.525Z,2.60
2017-12-10T02:33:20.991Z,3.10
2017-12-10T02:35:49.228Z,2.80
2017-12-10T02:38:16.694Z,2.23
2017-12-10T02:40:44.223Z,2.73
2017-12-10T02:43:11.740Z,1.70
2017-12-10T02:45:39.138Z,2.20
2017-12-10T02:48:06.599Z,2.30
2017-12-10T02:50:34.186Z,2.53
2017-12-10T02:53:01.648Z,2.50
2017-12-10T02:55:33.713Z,2.30
2017-12-10T02:58:01.268Z,1.97
2017-12-10T03:00:28.727Z,2.33
2017-12-10T03:02:56.195Z,2.20
2017-12-10T03:05:24.419Z,2.30
2017-12-10T03:07:51.907Z,3.10
2017-12-10T03:10:19.375Z,3.40
2017-12-10T03:12:47.604Z,1.90
2017-12-10T03:15:15.261Z,2.30
2017-12-10T03:17:42.812Z,2.07
2017-12-10T03:20:10.259Z,2.40
2017-12-10T03:22:38.322Z,2.23
2017-12-10T03:25:05.846Z,2.00
2017-12-10T03:27:34.113Z,2.97
2017-12-10T03:30:01.563Z,1.83
2017-12-10T03:32:29.126Z,2.20
2017-12-10T03:34:56.585Z,3.00
2017-12-10T03:37:24.175Z,2.30
2017-12-10T03:39:52.410Z,1.90
2017-12-10T03:42:19.963Z,1.70
2017-12-10T03:44:47.435Z,2.00
2017-12-10T03:47:14.891Z,2.10
2017-12-10T03:49:42.439Z,2.50
2017-12-10T03:52:09.891Z,2.13
2017-12-10T03:54:37.386Z,1.97
2017-12-10T03:57:04.909Z,2.00
2017-12-10T03:59:32.368Z,1.93
2017-12-10T04:01:59.831Z,1.80
2017-12-10T04:04:28.090Z,1.90
2017-12-10T04:06:55.546Z,1.90
2017-12-10T04:09:23.098Z,2.87
2017-12-10T04:11:50.550Z,5.57
2017-12-10T04:14:18.015Z,1.73
2017-12-10T04:16:45.576Z,1.87
2017-12-10T04:19:13.048Z,1.80
2017-12-10T04:21:41.271Z,2.73
2017-12-10T04:24:08.854Z,1.70
2017-12-10T04:26:36.335Z,1.77
2017-12-10T04:29:03.875Z,2.17
2017-12-10T04:31:31.376Z,1.87
2017-12-10T04:33:58.889Z,2.13
2017-12-10T04:36:26.372Z,1.50
2017-12-10T04:38:54.587Z,2.10
2017-12-10T04:41:22.038Z,2.60
2017-12-10T04:43:49.591Z,2.50
2017-12-10T04:46:17.087Z,1.80
2017-12-10T04:48:44.638Z,1.87
2017-12-10T04:51:12.104Z,2.27
2017-12-10T04:53:39.660Z,2.00
2017-12-10T04:56:07.220Z,1.77
2017-12-10T04:58:34.683Z,3.00
2017-12-10T05:01:02.193Z,1.67
2017-12-10T05:03:29.643Z,1.93
2017-12-10T05:05:57.138Z,3.93
2017-12-10T05:08:24.702Z,1.83
2017-12-10T05:10:52.160Z,2.10
2017-12-10T05:13:19.613Z,1.63
2017-12-10T05:15:47.090Z,1.50
2017-12-10T05:18:15.341Z,3.20
2017-12-10T05:20:42.797Z,7.30
2017-12-10T05:23:10.263Z,1.53
2017-12-10T05:25:37.722Z,2.23
2017-12-10T05:28:05.983Z,3.47
2017-12-10T05:30:33.444Z,2.00
2017-12-10T05:33:00.905Z,1.70
2017-12-10T05:35:28.372Z,2.90
2017-12-10T05:37:56.590Z,1.60
2017-12-10T05:40:24.181Z,1.40
2017-12-10T05:42:51.640Z,1.30
2017-12-10T05:45:19.190Z,1.80
2017-12-10T05:47:46.663Z,1.73
2017-12-10T05:50:14.115Z,1.50
2017-12-10T05:52:41.573Z,1.93
2017-12-10T05:55:09.830Z,1.87
2017-12-10T05:57:37.298Z,1.60
2017-12-10T06:00:04.756Z,1.60
2017-12-10T06:02:32.212Z,2.23
2017-12-10T06:04:59.679Z,1.90
2017-12-10T06:07:27.989Z,1.80
2017-12-10T06:09:55.434Z,1.77
2017-12-10T06:12:22.903Z,1.90
2017-12-10T06:14:50.400Z,1.63
2017-12-10T06:17:19.373Z,2.07
2017-12-10T06:19:46.862Z,2.00
2017-12-10T06:22:15.079Z,2.53
2017-12-10T06:24:42.531Z,3.77
2017-12-10T06:27:10.007Z,2.10
2017-12-10T06:29:37.467Z,2.20
2017-12-10T06:32:05.063Z,1.70
2017-12-10T06:34:32.557Z,2.23
2017-12-10T06:37:00.003Z,2.03
2017-12-10T06:39:27.510Z,2.13
2017-12-10T06:41:54.964Z,3.37
2017-12-10T06:44:22.411Z,1.93
2017-12-10T06:46:49.881Z,4.90
2017-12-10T06:49:17.436Z,3.67
2017-12-10T06:51:44.990Z,1.90
2017-12-10T06:54:13.947Z,2.30
2017-12-10T06:56:41.400Z,2.43
2017-12-10T06:59:08.862Z,1.80
2017-12-10T07:01:36.350Z,3.40
2017-12-10T07:04:03.921Z,1.70
2017-12-10T07:06:31.379Z,2.10
2017-12-10T07:08:59.645Z,3.13
2017-12-10T07:11:27.207Z,3.70
2017-12-10T07:13:54.679Z,2.50
2017-12-10T07:16:22.910Z,2.27
2017-12-10T07:18:50.367Z,1.93
2017-12-10T07:21:18.817Z,2.23
2017-12-10T07:23:46.287Z,3.03
2017-12-10T07:26:13.735Z,2.07
2017-12-10T07:28:41.227Z,1.80
2017-12-10T07:31:08.684Z,1.83
2017-12-10T07:33:37.666Z,2.80
2017-12-10T07:36:05.146Z,2.73
2017-12-10T07:38:33.370Z,2.00
2017-12-10T07:41:00.863Z,2.30
2017-12-10T07:43:28.420Z,2.80
2017-12-10T07:45:55.975Z,3.03
2017-12-10T07:48:23.535Z,3.60
2017-12-10T07:50:50.987Z,2.50
2017-12-10T07:53:18.442Z,3.53
2017-12-10T07:55:45.914Z,5.43
2017-12-10T07:58:14.234Z,3.00
2017-12-10T08:00:41.731Z,4.00
2017-12-10T08:03:09.187Z,5.03
2017-12-10T08:05:36.642Z,2.70
2017-12-10T08:08:04.110Z,3.60
2017-12-10T08:10:31.578Z,2.30
2017-12-10T08:12:59.937Z,2.80
2017-12-10T08:15:27.499Z,2.33
2017-12-10T08:17:55.055Z,2.50
2017-12-10T08:20:22.539Z,1.80
2017-12-10T08:22:49.990Z,2.60
2017-12-10T08:25:18.211Z,2.23
2017-12-10T08:27:45.704Z,2.40
2017-12-10T08:30:13.156Z,2.63
2017-12-10T08:32:40.703Z,3.80
2017-12-10T08:35:09.801Z,3.37
2017-12-10T08:37:37.267Z,3.53
2017-12-10T08:40:05.528Z,4.53
2017-12-10T08:42:33.760Z,4.00
2017-12-10T08:45:01.249Z,4.53
2017-12-10T08:47:28.810Z,3.03
2017-12-10T08:49:56.279Z,8.67
2017-12-10T08:52:23.835Z,6.93
2017-12-10T08:54:51.303Z,3.80
2017-12-10T08:57:19.558Z,2.53
2017-12-10T08:59:47.017Z,3.57
2017-12-10T09:02:14.483Z,6.03
2017-12-10T09:04:42.715Z,6.27
2017-12-10T09:07:10.184Z,4.47
2017-12-10T09:09:37.764Z,4.80
2017-12-10T09:12:06.027Z,6.23
2017-12-10T09:14:33.544Z,2.60
2017-12-10T09:17:00.999Z,5.47
2017-12-10T09:19:28.460Z,3.57
2017-12-10T09:21:55.932Z,2.47
2017-12-10T09:24:23.527Z,3.37
2017-12-10T09:26:52.486Z,4.50
2017-12-10T09:29:19.951Z,3.03
2017-12-10T09:31:47.523Z,1.87
2017-12-10T09:34:14.994Z,3.50
2017-12-10T09:36:43.243Z,2.73
2017-12-10T09:39:10.716Z,3.40
2017-12-10T09:41:38.299Z,1.93
2017-12-10T09:44:05.816Z,2.33
2017-12-10T09:46:33.311Z,1.60
2017-12-10T09:49:00.766Z,1.73
2017-12-10T09:51:28.232Z,1.90
2017-12-10T09:53:55.707Z,4.50
2017-12-10T09:56:23.159Z,2.17
2017-12-10T09:58:50.610Z,5.53
2017-12-10T10:01:18.083Z,3.80
2017-12-10T10:03:45.569Z,2.30
2017-12-10T10:06:13.016Z,2.90
2017-12-10T10:08:40.491Z,2.17
2017-12-10T10:11:08.722Z,3.20
2017-12-10T10:13:36.189Z,4.50
2017-12-10T10:16:03.638Z,3.30
2017-12-10T10:18:31.102Z,1.70
2017-12-10T10:20:58.674Z,2.60
2017-12-10T10:23:26.137Z,3.90
2017-12-10T10:25:54.367Z,2.73
2017-12-10T10:28:21.827Z,2.43
2017-12-10T10:30:49.306Z,4.40
2017-12-10T10:33:16.870Z,7.33
2017-12-10T10:35:44.427Z,6.67
2017-12-10T10:38:11.886Z,2.30
2017-12-10T10:40:39.345Z,3.17
2017-12-10T10:43:06.826Z,4.20
2017-12-10T10:45:35.042Z,5.63
2017-12-10T10:48:02.510Z,3.00
2017-12-10T10:50:30.078Z,3.57
2017-12-10T10:52:57.598Z,2.97
2017-12-10T10:55:25.048Z,3.13
2017-12-10T10:57:52.531Z,2.80
2017-12-10T11:00:20.013Z,3.20
2017-12-10T11:02:47.464Z,2.60
2017-12-10T11:05:15.023Z,2.30
2017-12-10T11:07:42.490Z,5.70
2017-12-10T11:10:10.031Z,2.13
2017-12-10T11:12:37.651Z,2.30
2017-12-10T11:15:05.163Z,3.40
2017-12-10T11:17:33.483Z,2.60
2017-12-10T11:20:00.945Z,2.13
2017-12-10T11:22:28.411Z,3.17
2017-12-10T11:24:55.875Z,5.17
2017-12-10T11:27:23.326Z,3.80
2017-12-10T11:29:50.810Z,3.40
2017-12-10T11:32:18.375Z,3.67
2017-12-10T11:34:45.876Z,2.50
2017-12-10T11:37:13.330Z,3.40
2017-12-10T11:39:40.791Z,2.60
2017-12-10T11:42:08.371Z,3.17
2017-12-10T11:44:35.903Z,2.47
2017-12-10T11:47:03.370Z,8.73
2017-12-10T11:49:30.838Z,4.43
2017-12-10T11:51:58.295Z,3.43
2017-12-10T11:54:25.872Z,2.67
2017-12-10T11:56:53.345Z,2.63
2017-12-10T11:59:21.605Z,2.20
2017-12-10T12:01:49.220Z,4.57
2017-12-10T12:04:16.675Z,2.37
2017-12-10T12:06:44.235Z,8.90
2017-12-10T12:09:11.823Z,3.67
2017-12-10T12:11:40.051Z,2.80
2017-12-10T12:14:07.503Z,2.70
2017-12-10T12:16:34.978Z,5.53
2017-12-10T12:19:02.530Z,2.23
2017-12-10T12:21:29.962Z,4.13
2017-12-10T12:23:57.414Z,2.70
2017-12-10T12:26:24.940Z,6.17
2017-12-10T12:28:52.478Z,3.17
2017-12-10T12:31:19.931Z,3.73
2017-12-10T12:33:47.715Z,5.63
2017-12-10T12:36:15.942Z,4.37
2017-12-10T12:38:43.403Z,4.57
2017-12-10T12:41:11.003Z,4.40
2017-12-10T12:43:38.467Z,4.07
2017-12-10T12:46:05.923Z,4.43
2017-12-10T12:48:33.429Z,4.57
2017-12-10T12:51:00.987Z,7.40
2017-12-10T12:53:28.447Z,4.20
2017-12-10T12:55:55.902Z,5.63
2017-12-10T12:58:23.392Z,4.30
2017-12-10T13:00:50.851Z,5.07
2017-12-10T13:03:18.439Z,4.67
2017-12-10T13:05:46.695Z,3.80
2017-12-10T13:08:14.155Z,4.53
2017-12-10T13:10:42.474Z,4.60
2017-12-10T13:13:10.038Z,6.60
2017-12-10T13:15:37.589Z,4.00
2017-12-10T13:18:05.094Z,6.50
2017-12-10T13:20:32.639Z,5.10
2017-12-10T13:23:00.203Z,5.00
2017-12-10T13:25:27.656Z,6.50
2017-12-10T13:27:55.213Z,5.70
2017-12-10T13:30:22.698Z,4.47
2017-12-10T13:32:50.955Z,4.10
2017-12-10T13:35:18.518Z,4.80
2017-12-10T13:37:45.999Z,5.10
2017-12-10T13:40:14.240Z,4.70
2017-12-10T13:42:41.696Z,11.30
2017-12-10T13:45:09.205Z,4.30
2017-12-10T13:47:36.694Z,4.77
2017-12-10T13:50:04.172Z,5.07
2017-12-10T13:52:31.715Z,5.20
2017-12-10T13:54:59.231Z,5.57
2017-12-10T13:57:26.727Z,5.87
2017-12-10T13:59:54.245Z,6.40
2017-12-10T14:02:21.703Z,4.77
2017-12-10T14:04:49.183Z,6.40
2017-12-10T14:07:16.667Z,5.40
2017-12-10T14:09:44.168Z,5.33
2017-12-10T14:12:11.669Z,6.23
2017-12-10T14:14:39.131Z,8.30
2017-12-10T14:17:07.363Z,5.97
2017-12-10T14:19:34.871Z,5.50
2017-12-10T14:22:03.099Z,9.27
2017-12-10T14:24:30.571Z,6.00
2017-12-10T14:26:58.030Z,7.00
2017-12-10T14:29:25.597Z,7.87
2017-12-10T14:31:53.146Z,6.20
2017-12-10T14:34:20.603Z,5.60
2017-12-10T14:36:48.086Z,9.37
2017-12-10T14:39:16.307Z,7.70
2017-12-10T14:41:43.764Z,6.43
2017-12-10T14:44:11.252Z,6.20
2017-12-10T14:46:38.809Z,5.83
2017-12-10T14:49:06.367Z,6.53
2017-12-10T14:51:33.833Z,6.07
2017-12-10T14:54:02.104Z,6.53
2017-12-10T14:56:29.575Z,6.40
2017-12-10T14:58:57.835Z,5.40
2017-12-10T15:01:26.071Z,8.97
2017-12-10T15:03:53.556Z,6.97
2017-12-10T15:06:21.039Z,7.30
2017-12-10T15:08:49.451Z,7.90
2017-12-10T15:11:17.005Z,7.60
2017-12-10T15:13:44.505Z,7.87
2017-12-10T15:16:12.120Z,10.30
2017-12-10T15:18:39.579Z,6.10
2017-12-10T15:21:07.077Z,6.73
2017-12-10T15:23:34.527Z,7.07
2017-12-10T15:26:02.023Z,10.50
2017-12-10T15:28:29.550Z,10.70
2017-12-10T15:30:57.018Z,10.80
2017-12-10T15:33:25.270Z,9.00
2017-12-10T15:35:52.732Z,9.17
2017-12-10T15:38:20.288Z,11.73
2017-12-10T15:40:47.755Z,9.90
2017-12-10T15:43:16.075Z,11.07
2017-12-10T15:45:43.581Z,12.23
2017-12-10T15:48:11.795Z,10.73
2017-12-10T15:50:39.303Z,10.10
2017-12-10T15:53:06.787Z,10.60
2017-12-10T15:55:35.030Z,11.27
2017-12-10T15:58:02.603Z,10.07
2017-12-10T16:00:30.839Z,10.53
2017-12-10T16:02:59.174Z,14.83
2017-12-10T16:05:26.655Z,11.97
2017-12-10T16:07:54.105Z,8.87
2017-12-10T16:10:21.712Z,5.50
2017-12-10T16:12:49.370Z,4.10
2017-12-10T16:15:16.828Z,3.53
2017-12-10T16:17:44.291Z,3.73
2017-12-10T16:20:13.519Z,2.90
2017-12-10T16:22:41.035Z,2.40
2017-12-10T16:25:08.492Z,3.07
2017-12-10T16:27:35.954Z,2.00
2017-12-10T16:30:03.502Z,3.93
2017-12-10T16:32:30.946Z,3.30
2017-12-10T16:34:58.427Z,1.93
2017-12-10T16:37:26.654Z,1.90
2017-12-10T16:39:54.170Z,2.37
2017-12-10T16:42:21.707Z,2.17
2017-12-10T16:44:49.162Z,2.20
2017-12-10T16:47:16.614Z,1.27
2017-12-10T16:49:44.071Z,1.60
2017-12-10T16:52:11.523Z,1.37
2017-12-10T16:54:39.083Z,1.50
2017-12-10T16:57:08.075Z,1.20
2017-12-10T16:59:35.525Z,2.73
2017-12-10T17:02:02.991Z,1.73
2017-12-10T17:04:30.443Z,1.57
2017-12-10T17:06:57.974Z,1.00
2017-12-10T17:09:26.150Z,1.40
2017-12-10T17:11:53.629Z,1.70
2017-12-10T17:14:21.085Z,2.60
2017-12-10T17:16:49.312Z,1.10
2017-12-10T17:19:16.759Z,1.30
2017-12-10T17:21:44.239Z,1.10
2017-12-10T17:24:11.722Z,1.00
2017-12-10T17:26:39.174Z,1.10
2017-12-10T17:29:06.636Z,1.20
2017-12-10T17:31:34.150Z,1.00
2017-12-10T17:34:01.654Z,2.30
2017-12-10T17:36:29.924Z,2.57
2017-12-10T17:38:58.923Z,2.60
2017-12-10T17:41:26.376Z,2.07
2017-12-10T17:43:54.607Z,1.57
2017-12-10T17:46:22.059Z,0.90
2017-12-10T17:48:49.522Z,2.00
2017-12-10T17:51:16.967Z,0.90
2017-12-10T17:53:44.423Z,1.33
2017-12-10T17:56:11.936Z,0.90
2017-12-10T17:58:39.374Z,1.20
2017-12-10T18:01:08.327Z,0.80
2017-12-10T18:03:35.825Z,0.90
2017-12-10T18:06:03.272Z,1.20
2017-12-10T18:08:30.719Z,3.00
2017-12-10T18:10:58.351Z,0.80
2017-12-10T18:13:25.788Z,0.90
2017-12-10T18:15:53.262Z,1.33
2017-12-10T18:18:20.712Z,1.20
2017-12-10T18:20:48.167Z,2.20
2017-12-10T18:23:15.630Z,1.20
2017-12-10T18:25:44.005Z,1.77
2017-12-10T18:28:11.478Z,1.00
2017-12-10T18:30:39.019Z,1.00
2017-12-10T18:33:06.487Z,0.90
2017-12-10T18:35:33.972Z,1.13
2017-12-10T18:38:01.487Z,0.73
2017-12-10T18:40:28.988Z,1.47
2017-12-10T18:42:57.198Z,1.20
2017-12-10T18:45:24.651Z,1.20
2017-12-10T18:47:52.898Z,1.17
2017-12-10T18:50:20.343Z,1.17
2017-12-10T18:52:48.633Z,0.90
2017-12-10T18:55:16.856Z,0.97
2017-12-10T18:57:44.407Z,1.10
2017-12-10T19:00:11.902Z,1.13
2017-12-10T19:02:40.122Z,1.00
2017-12-10T19:05:07.621Z,1.20
2017-12-10T19:07:35.059Z,1.13
2017-12-10T19:10:02.549Z,1.63
2017-12-10T19:12:31.514Z,1.13
2017-12-10T19:14:58.963Z,0.80
2017-12-10T19:17:26.459Z,0.93
2017-12-10T19:19:53.927Z,0.90
2017-12-10T19:22:22.134Z,1.13
2017-12-10T19:24:49.583Z,1.87
2017-12-10T19:27:17.097Z,1.13
2017-12-10T19:29:46.043Z,1.20
2017-12-10T19:32:13.495Z,1.57
2017-12-10T19:34:40.955Z,1.27
2017-12-10T19:37:08.411Z,0.93
2017-12-10T19:39:35.870Z,1.57
2017-12-10T19:42:03.345Z,1.23
2017-12-10T19:44:30.778Z,1.10
2017-12-10T19:46:58.370Z,1.00
2017-12-10T19:49:25.819Z,1.20
2017-12-10T19:51:53.284Z,1.00
2017-12-10T19:54:22.256Z,1.10
2017-12-10T19:56:49.744Z,1.33
2017-12-10T19:59:17.337Z,0.77
2017-12-10T20:01:44.850Z,1.00
2017-12-10T20:04:12.415Z,1.13
2017-12-10T20:06:39.895Z,0.90
2017-12-10T20:09:08.106Z,1.00
2017-12-10T20:11:35.575Z,1.60
2017-12-10T20:14:03.026Z,1.10
2017-12-10T20:16:30.471Z,1.10
2017-12-10T20:18:58.073Z,0.83
2017-12-10T20:21:25.515Z,0.60
2017-12-10T20:23:53.767Z,1.10
2017-12-10T20:26:21.400Z,2.03
2017-12-10T20:28:48.810Z,1.30
2017-12-10T20:31:16.279Z,1.30
2017-12-10T20:33:44.495Z,1.30
2017-12-10T20:36:11.948Z,1.57
2017-12-10T20:38:39.427Z,1.20
2017-12-10T20:41:06.883Z,0.90
2017-12-10T20:43:34.335Z,0.90
2017-12-10T20:46:01.799Z,1.03
2017-12-10T20:48:29.264Z,1.60
2017-12-10T20:50:57.531Z,2.33
2017-12-10T20:53:24.997Z,4.57
2017-12-10T20:55:53.284Z,2.40
2017-12-10T20:58:20.767Z,1.30
2017-12-10T21:00:48.279Z,1.30
2017-12-10T21:03:16.494Z,1.30
2017-12-10T21:05:44.012Z,1.30
2017-12-10T21:08:12.226Z,1.40
2017-12-10T21:10:39.755Z,1.33
2017-12-10T21:13:07.207Z,1.53
2017-12-10T21:15:34.659Z,1.97
2017-12-10T21:18:02.214Z,2.23
2017-12-10T21:20:31.195Z,2.97
2017-12-10T21:22:58.761Z,2.53
2017-12-10T21:25:26.217Z,5.43
2017-12-10T21:27:55.198Z,3.97
2017-12-10T21:30:22.659Z,1.80
2017-12-10T21:32:51.611Z,1.50
2017-12-10T21:35:19.075Z,2.00
2017-12-10T21:37:46.579Z,2.43
2017-12-10T21:40:14.057Z,2.37
2017-12-10T21:42:41.508Z,1.60
2017-12-10T21:45:09.723Z,2.10
2017-12-10T21:47:37.195Z,1.93
2017-12-10T21:50:04.659Z,1.50
2017-12-10T21:52:32.214Z,1.33
2017-12-10T21:54:59.771Z,1.57
2017-12-10T21:57:27.330Z,2.40
2017-12-10T21:59:54.798Z,4.63
2017-12-10T22:02:23.768Z,5.40
2017-12-10T22:04:51.235Z,1.43
2017-12-10T22:07:19.502Z,1.23
2017-12-10T22:09:46.963Z,3.30
2017-12-10T22:12:14.411Z,1.10
2017-12-10T22:14:41.879Z,1.47
2017-12-10T22:17:10.092Z,1.40
2017-12-10T22:19:37.563Z,2.40
2017-12-10T22:22:05.059Z,1.60
2017-12-10T22:24:34.014Z,1.73
2017-12-10T22:27:01.476Z,2.30
2017-12-10T22:29:28.923Z,2.20
2017-12-10T22:31:56.479Z,2.00
2017-12-10T22:34:23.955Z,1.10
2017-12-10T22:36:51.402Z,1.03
2017-12-10T22:39:18.847Z,0.93
2017-12-10T22:41:46.360Z,1.67
2017-12-10T22:44:14.570Z,2.20
2017-12-10T22:46:42.070Z,1.03
2017-12-10T22:49:11.027Z,2.80
2017-12-10T22:51:38.483Z,1.70
2017-12-10T22:54:06.080Z,1.93
2017-12-10T22:56:33.634Z,1.73
2017-12-10T22:59:02.635Z,2.17
2017-12-10T23:01:30.188Z,1.70
2017-12-10T23:03:58.399Z,1.60
2017-12-10T23:06:26.339Z,3.73
2017-12-10T23:08:53.878Z,2.20
2017-12-10T23:11:21.335Z,3.40
2017-12-10T23:14:00.608Z,2.00
2017-12-10T23:16:30.540Z,3.37
2017-12-10T23:18:58.007Z,2.10
2017-12-10T23:21:25.466Z,1.73
2017-12-10T23:23:52.911Z,3.40
2017-12-10T23:26:20.408Z,2.53
2017-12-10T23:28:49.400Z,1.70
2017-12-10T23:31:16.851Z,2.10
2017-12-10T23:33:44.318Z,2.23
2017-12-10T23:36:12.591Z,2.30
2017-12-10T23:38:40.045Z,2.27
2017-12-10T23:41:07.606Z,4.20
2017-12-10T23:43:35.056Z,4.20
2017-12-10T23:46:03.329Z,2.17
2017-12-10T23:48:30.882Z,3.27
2017-12-10T23:50:58.434Z,2.00
2017-12-10T23:53:25.890Z,2.93
2017-12-10T23:55:53.339Z,1.83
2017-12-10T23:58:20.816Z,2.07
